sensor_id;sensor_type;location;lat;lon;timestamp;P1;durP1;ratioP1;P2;durP2;ratioP2
5987;SDS011;3021;51.000;6.980;2022-11-20T00:02:21;26.92;;;14.88;;
5987;SDS011;3021;51.000;6.980;2022-11-20T00:04:47;26.73;;;15.45;;
5987;SDS011;3021;51.000;6.980;2022-11-20T00:07:12;25.85;;;14.40;;
5987;SDS011;3021;51.000;6.980;2022-11-20T00:09:37;25.25;;;15.32;;
5987;SDS011;3021;51.000;6.980;2022-11-20T00:12:03;25.15;;;14.68;;
5987;SDS011;3021;51.000;6.980;2022-11-20T00:14:28;29.58;;;14.32;;
5987;SDS011;3021;51.000;6.980;2022-11-20T00:16:53;24.30;;;14.00;;
5987;SDS011;3021;51.000;6.980;2022-11-20T00:19:19;25.10;;;14.55;;
5987;SDS011;3021;51.000;6.980;2022-11-20T00:21:44;28.50;;;15.30;;
5987;SDS011;3021;51.000;6.980;2022-11-20T00:24:12;25.70;;;15.00;;
5987;SDS011;3021;51.000;6.980;2022-11-20T00:26:38;24.58;;;13.90;;
5987;SDS011;3021;51.000;6.980;2022-11-20T00:29:03;23.58;;;14.85;;
5987;SDS011;3021;51.000;6.980;2022-11-20T00:31:29;26.75;;;14.88;;
5987;SDS011;3021;51.000;6.980;2022-11-20T00:33:55;25.17;;;14.15;;
5987;SDS011;3021;51.000;6.980;2022-11-20T00:36:22;25.23;;;14.52;;
5987;SDS011;3021;51.000;6.980;2022-11-20T00:38:52;25.77;;;15.15;;
5987;SDS011;3021;51.000;6.980;2022-11-20T00:41:19;25.25;;;15.48;;
5987;SDS011;3021;51.000;6.980;2022-11-20T00:43:44;29.42;;;15.88;;
5987;SDS011;3021;51.000;6.980;2022-11-20T00:46:12;24.25;;;14.60;;
5987;SDS011;3021;51.000;6.980;2022-11-20T00:48:41;23.73;;;14.13;;
5987;SDS011;3021;51.000;6.980;2022-11-20T00:51:10;23.35;;;14.70;;
5987;SDS011;3021;51.000;6.980;2022-11-20T00:53:37;22.73;;;14.00;;
5987;SDS011;3021;51.000;6.980;2022-11-20T00:56:04;24.50;;;14.30;;
5987;SDS011;3021;51.000;6.980;2022-11-20T00:58:35;26.48;;;15.00;;
5987;SDS011;3021;51.000;6.980;2022-11-20T01:01:06;23.70;;;13.55;;
5987;SDS011;3021;51.000;6.980;2022-11-20T01:03:35;23.35;;;13.60;;
5987;SDS011;3021;51.000;6.980;2022-11-20T01:06:03;22.95;;;14.35;;
5987;SDS011;3021;51.000;6.980;2022-11-20T01:08:34;21.92;;;13.88;;
5987;SDS011;3021;51.000;6.980;2022-11-20T01:11:01;24.77;;;14.63;;
5987;SDS011;3021;51.000;6.980;2022-11-20T01:13:29;22.00;;;14.02;;
5987;SDS011;3021;51.000;6.980;2022-11-20T01:16:09;24.13;;;14.38;;
5987;SDS011;3021;51.000;6.980;2022-11-20T01:18:37;24.00;;;14.35;;
5987;SDS011;3021;51.000;6.980;2022-11-20T01:21:11;23.10;;;13.45;;
5987;SDS011;3021;51.000;6.980;2022-11-20T01:23:38;24.67;;;14.70;;
5987;SDS011;3021;51.000;6.980;2022-11-20T01:26:06;24.83;;;13.55;;
5987;SDS011;3021;51.000;6.980;2022-11-20T01:28:36;28.83;;;14.55;;
5987;SDS011;3021;51.000;6.980;2022-11-20T01:31:02;27.35;;;14.82;;
5987;SDS011;3021;51.000;6.980;2022-11-20T01:33:36;24.17;;;14.70;;
5987;SDS011;3021;51.000;6.980;2022-11-20T01:36:05;26.05;;;14.80;;
5987;SDS011;3021;51.000;6.980;2022-11-20T01:38:32;26.52;;;15.02;;
5987;SDS011;3021;51.000;6.980;2022-11-20T01:40:57;27.60;;;15.40;;
5987;SDS011;3021;51.000;6.980;2022-11-20T01:43:23;21.30;;;13.85;;
5987;SDS011;3021;51.000;6.980;2022-11-20T01:52:44;25.10;;;13.63;;
5987;SDS011;3021;51.000;6.980;2022-11-20T01:54:47;23.33;;;14.05;;
5987;SDS011;3021;51.000;6.980;2022-11-20T01:57:21;22.73;;;14.10;;
5987;SDS011;3021;51.000;6.980;2022-11-20T01:59:52;24.17;;;14.65;;
5987;SDS011;3021;51.000;6.980;2022-11-20T02:02:22;23.15;;;14.02;;
5987;SDS011;3021;51.000;6.980;2022-11-20T02:04:49;25.52;;;14.23;;
5987;SDS011;3021;51.000;6.980;2022-11-20T02:07:19;24.40;;;13.52;;
5987;SDS011;3021;51.000;6.980;2022-11-20T02:09:45;25.33;;;13.73;;
5987;SDS011;3021;51.000;6.980;2022-11-20T02:12:10;23.05;;;13.43;;
5987;SDS011;3021;51.000;6.980;2022-11-20T02:14:56;23.88;;;14.18;;
5987;SDS011;3021;51.000;6.980;2022-11-20T02:17:22;23.00;;;13.35;;
5987;SDS011;3021;51.000;6.980;2022-11-20T02:19:48;22.77;;;13.40;;
5987;SDS011;3021;51.000;6.980;2022-11-20T02:22:24;21.80;;;13.18;;
5987;SDS011;3021;51.000;6.980;2022-11-20T02:24:54;21.02;;;13.10;;
5987;SDS011;3021;51.000;6.980;2022-11-20T02:27:19;22.75;;;13.45;;
5987;SDS011;3021;51.000;6.980;2022-11-20T02:32:27;24.92;;;14.63;;
5987;SDS011;3021;51.000;6.980;2022-11-20T02:34:54;25.88;;;14.20;;
5987;SDS011;3021;51.000;6.980;2022-11-20T02:37:20;23.27;;;14.60;;
5987;SDS011;3021;51.000;6.980;2022-11-20T02:39:47;23.38;;;13.15;;
5987;SDS011;3021;51.000;6.980;2022-11-20T02:42:14;23.08;;;13.88;;
5987;SDS011;3021;51.000;6.980;2022-11-20T02:44:39;21.42;;;13.88;;
5987;SDS011;3021;51.000;6.980;2022-11-20T02:47:05;21.73;;;12.90;;
5987;SDS011;3021;51.000;6.980;2022-11-20T02:49:30;22.40;;;13.38;;
5987;SDS011;3021;51.000;6.980;2022-11-20T02:51:55;26.38;;;14.85;;
5987;SDS011;3021;51.000;6.980;2022-11-20T02:54:21;22.45;;;13.65;;
5987;SDS011;3021;51.000;6.980;2022-11-20T02:56:46;23.52;;;14.10;;
5987;SDS011;3021;51.000;6.980;2022-11-20T02:59:11;23.33;;;13.13;;
5987;SDS011;3021;51.000;6.980;2022-11-20T03:01:37;23.02;;;13.38;;
5987;SDS011;3021;51.000;6.980;2022-11-20T03:04:02;23.42;;;13.60;;
5987;SDS011;3021;51.000;6.980;2022-11-20T03:06:27;23.23;;;13.35;;
5987;SDS011;3021;51.000;6.980;2022-11-20T03:08:53;22.15;;;13.00;;
5987;SDS011;3021;51.000;6.980;2022-11-20T03:11:19;23.67;;;14.35;;
5987;SDS011;3021;51.000;6.980;2022-11-20T03:13:44;21.90;;;12.98;;
5987;SDS011;3021;51.000;6.980;2022-11-20T03:16:11;23.63;;;13.85;;
5987;SDS011;3021;51.000;6.980;2022-11-20T03:18:39;23.05;;;12.90;;
5987;SDS011;3021;51.000;6.980;2022-11-20T03:21:05;24.13;;;13.35;;
5987;SDS011;3021;51.000;6.980;2022-11-20T03:23:32;23.30;;;13.75;;
5987;SDS011;3021;51.000;6.980;2022-11-20T03:26:11;21.33;;;13.27;;
5987;SDS011;3021;51.000;6.980;2022-11-20T03:28:38;24.40;;;14.55;;
5987;SDS011;3021;51.000;6.980;2022-11-20T03:31:05;25.02;;;13.70;;
5987;SDS011;3021;51.000;6.980;2022-11-20T03:33:31;26.15;;;14.73;;
5987;SDS011;3021;51.000;6.980;2022-11-20T03:36:00;24.85;;;13.98;;
5987;SDS011;3021;51.000;6.980;2022-11-20T03:38:28;23.83;;;14.27;;
5987;SDS011;3021;51.000;6.980;2022-11-20T03:40:58;24.35;;;13.50;;
5987;SDS011;3021;51.000;6.980;2022-11-20T03:43:28;23.73;;;14.25;;
5987;SDS011;3021;51.000;6.980;2022-11-20T03:45:53;26.05;;;14.90;;
5987;SDS011;3021;51.000;6.980;2022-11-20T03:48:19;24.33;;;14.93;;
5987;SDS011;3021;51.000;6.980;2022-11-20T03:50:44;25.35;;;14.82;;
5987;SDS011;3021;51.000;6.980;2022-11-20T03:53:12;25.08;;;14.65;;
5987;SDS011;3021;51.000;6.980;2022-11-20T03:55:38;24.83;;;14.45;;
5987;SDS011;3021;51.000;6.980;2022-11-20T03:58:03;26.38;;;15.30;;
5987;SDS011;3021;51.000;6.980;2022-11-20T04:00:29;27.35;;;15.82;;
5987;SDS011;3021;51.000;6.980;2022-11-20T04:02:57;27.17;;;14.88;;
5987;SDS011;3021;51.000;6.980;2022-11-20T04:05:24;25.38;;;14.98;;
5987;SDS011;3021;51.000;6.980;2022-11-20T04:07:49;25.95;;;14.93;;
5987;SDS011;3021;51.000;6.980;2022-11-20T04:10:15;24.73;;;14.88;;
5987;SDS011;3021;51.000;6.980;2022-11-20T04:12:40;27.33;;;14.88;;
5987;SDS011;3021;51.000;6.980;2022-11-20T04:15:05;28.20;;;15.23;;
5987;SDS011;3021;51.000;6.980;2022-11-20T04:17:31;27.95;;;15.32;;
5987;SDS011;3021;51.000;6.980;2022-11-20T04:19:56;24.23;;;15.02;;
5987;SDS011;3021;51.000;6.980;2022-11-20T04:22:21;26.73;;;15.65;;
5987;SDS011;3021;51.000;6.980;2022-11-20T04:24:47;26.75;;;15.82;;
5987;SDS011;3021;51.000;6.980;2022-11-20T04:27:12;26.25;;;14.88;;
5987;SDS011;3021;51.000;6.980;2022-11-20T04:29:37;24.85;;;15.40;;
5987;SDS011;3021;51.000;6.980;2022-11-20T04:32:03;26.85;;;15.27;;
5987;SDS011;3021;51.000;6.980;2022-11-20T04:34:28;27.58;;;15.43;;
5987;SDS011;3021;51.000;6.980;2022-11-20T04:36:53;24.48;;;13.75;;
5987;SDS011;3021;51.000;6.980;2022-11-20T04:39:19;21.70;;;13.63;;
5987;SDS011;3021;51.000;6.980;2022-11-20T04:41:44;24.58;;;14.63;;
5987;SDS011;3021;51.000;6.980;2022-11-20T04:44:10;27.13;;;15.02;;
5987;SDS011;3021;51.000;6.980;2022-11-20T04:46:36;26.42;;;14.80;;
5987;SDS011;3021;51.000;6.980;2022-11-20T04:49:05;25.33;;;14.68;;
5987;SDS011;3021;51.000;6.980;2022-11-20T04:51:31;23.48;;;14.43;;
5987;SDS011;3021;51.000;6.980;2022-11-20T04:53:56;25.27;;;13.80;;
5987;SDS011;3021;51.000;6.980;2022-11-20T04:56:22;26.33;;;14.93;;
5987;SDS011;3021;51.000;6.980;2022-11-20T04:58:47;23.75;;;14.15;;
5987;SDS011;3021;51.000;6.980;2022-11-20T05:01:17;25.88;;;15.02;;
5987;SDS011;3021;51.000;6.980;2022-11-20T05:03:45;24.48;;;13.77;;
5987;SDS011;3021;51.000;6.980;2022-11-20T05:06:11;26.02;;;14.40;;
5987;SDS011;3021;51.000;6.980;2022-11-20T05:08:38;26.33;;;14.38;;
5987;SDS011;3021;51.000;6.980;2022-11-20T05:11:05;24.63;;;14.35;;
5987;SDS011;3021;51.000;6.980;2022-11-20T05:13:42;25.95;;;15.32;;
5987;SDS011;3021;51.000;6.980;2022-11-20T05:16:08;27.45;;;15.25;;
5987;SDS011;3021;51.000;6.980;2022-11-20T05:18:36;24.88;;;14.68;;
5987;SDS011;3021;51.000;6.980;2022-11-20T05:21:02;24.90;;;14.95;;
5987;SDS011;3021;51.000;6.980;2022-11-20T05:23:28;22.90;;;14.02;;
5987;SDS011;3021;51.000;6.980;2022-11-20T05:25:55;22.35;;;13.52;;
5987;SDS011;3021;51.000;6.980;2022-11-20T05:28:21;21.60;;;13.18;;
5987;SDS011;3021;51.000;6.980;2022-11-20T05:30:47;26.45;;;14.77;;
5987;SDS011;3021;51.000;6.980;2022-11-20T05:33:13;26.42;;;14.45;;
5987;SDS011;3021;51.000;6.980;2022-11-20T05:35:38;25.30;;;14.90;;
5987;SDS011;3021;51.000;6.980;2022-11-20T05:38:03;25.00;;;14.38;;
5987;SDS011;3021;51.000;6.980;2022-11-20T05:40:29;24.80;;;14.30;;
5987;SDS011;3021;51.000;6.980;2022-11-20T05:42:54;24.55;;;14.52;;
5987;SDS011;3021;51.000;6.980;2022-11-20T05:45:19;24.70;;;14.85;;
5987;SDS011;3021;51.000;6.980;2022-11-20T05:47:45;25.30;;;15.00;;
5987;SDS011;3021;51.000;6.980;2022-11-20T05:50:10;25.75;;;14.13;;
5987;SDS011;3021;51.000;6.980;2022-11-20T05:52:36;23.63;;;14.00;;
5987;SDS011;3021;51.000;6.980;2022-11-20T05:55:01;24.67;;;13.73;;
5987;SDS011;3021;51.000;6.980;2022-11-20T05:57:26;27.65;;;14.27;;
5987;SDS011;3021;51.000;6.980;2022-11-20T05:59:52;25.35;;;14.25;;
5987;SDS011;3021;51.000;6.980;2022-11-20T06:02:17;23.50;;;14.75;;
5987;SDS011;3021;51.000;6.980;2022-11-20T06:04:42;27.98;;;14.80;;
5987;SDS011;3021;51.000;6.980;2022-11-20T06:07:08;26.42;;;15.80;;
5987;SDS011;3021;51.000;6.980;2022-11-20T06:09:33;25.40;;;15.13;;
5987;SDS011;3021;51.000;6.980;2022-11-20T06:11:59;25.38;;;14.85;;
5987;SDS011;3021;51.000;6.980;2022-11-20T06:14:24;26.10;;;15.13;;
5987;SDS011;3021;51.000;6.980;2022-11-20T06:16:49;25.90;;;14.90;;
5987;SDS011;3021;51.000;6.980;2022-11-20T06:19:15;25.63;;;15.25;;
5987;SDS011;3021;51.000;6.980;2022-11-20T06:21:40;24.58;;;14.40;;
5987;SDS011;3021;51.000;6.980;2022-11-20T06:24:05;26.77;;;15.13;;
5987;SDS011;3021;51.000;6.980;2022-11-20T06:26:31;25.05;;;14.10;;
5987;SDS011;3021;51.000;6.980;2022-11-20T06:28:57;30.08;;;16.58;;
5987;SDS011;3021;51.000;6.980;2022-11-20T06:31:23;24.85;;;15.15;;
5987;SDS011;3021;51.000;6.980;2022-11-20T06:33:49;26.88;;;15.88;;
5987;SDS011;3021;51.000;6.980;2022-11-20T06:36:16;27.85;;;16.30;;
5987;SDS011;3021;51.000;6.980;2022-11-20T06:38:43;28.38;;;16.02;;
5987;SDS011;3021;51.000;6.980;2022-11-20T06:41:11;29.13;;;15.77;;
5987;SDS011;3021;51.000;6.980;2022-11-20T06:43:38;27.63;;;15.23;;
5987;SDS011;3021;51.000;6.980;2022-11-20T06:46:03;27.85;;;16.17;;
5987;SDS011;3021;51.000;6.980;2022-11-20T06:48:28;27.52;;;15.85;;
5987;SDS011;3021;51.000;6.980;2022-11-20T06:50:54;29.88;;;16.67;;
5987;SDS011;3021;51.000;6.980;2022-11-20T06:53:21;29.55;;;16.27;;
5987;SDS011;3021;51.000;6.980;2022-11-20T06:55:46;27.70;;;15.80;;
5987;SDS011;3021;51.000;6.980;2022-11-20T06:58:12;27.63;;;14.73;;
5987;SDS011;3021;51.000;6.980;2022-11-20T07:00:39;29.25;;;17.08;;
5987;SDS011;3021;51.000;6.980;2022-11-20T07:03:07;30.00;;;16.05;;
5987;SDS011;3021;51.000;6.980;2022-11-20T07:05:34;27.55;;;16.15;;
5987;SDS011;3021;51.000;6.980;2022-11-20T07:08:00;25.77;;;15.75;;
5987;SDS011;3021;51.000;6.980;2022-11-20T07:10:26;31.75;;;17.30;;
5987;SDS011;3021;51.000;6.980;2022-11-20T07:12:52;28.90;;;16.48;;
5987;SDS011;3021;51.000;6.980;2022-11-20T07:15:18;29.65;;;16.38;;
5987;SDS011;3021;51.000;6.980;2022-11-20T07:17:45;31.63;;;16.73;;
5987;SDS011;3021;51.000;6.980;2022-11-20T07:20:10;28.88;;;16.65;;
5987;SDS011;3021;51.000;6.980;2022-11-20T07:22:36;28.15;;;15.73;;
5987;SDS011;3021;51.000;6.980;2022-11-20T07:25:02;27.40;;;16.05;;
5987;SDS011;3021;51.000;6.980;2022-11-20T07:27:28;26.98;;;15.88;;
5987;SDS011;3021;51.000;6.980;2022-11-20T07:29:53;27.45;;;16.80;;
5987;SDS011;3021;51.000;6.980;2022-11-20T07:32:19;28.98;;;16.90;;
5987;SDS011;3021;51.000;6.980;2022-11-20T07:34:44;30.40;;;16.80;;
5987;SDS011;3021;51.000;6.980;2022-11-20T07:37:10;28.25;;;16.63;;
5987;SDS011;3021;51.000;6.980;2022-11-20T07:39:35;30.27;;;16.15;;
5987;SDS011;3021;51.000;6.980;2022-11-20T07:42:00;27.77;;;16.02;;
5987;SDS011;3021;51.000;6.980;2022-11-20T07:44:26;31.45;;;17.23;;
5987;SDS011;3021;51.000;6.980;2022-11-20T07:46:51;27.45;;;15.80;;
5987;SDS011;3021;51.000;6.980;2022-11-20T07:49:16;27.58;;;15.80;;
5987;SDS011;3021;51.000;6.980;2022-11-20T07:51:42;28.73;;;16.85;;
5987;SDS011;3021;51.000;6.980;2022-11-20T07:54:07;31.25;;;17.33;;
5987;SDS011;3021;51.000;6.980;2022-11-20T07:56:32;30.20;;;17.20;;
5987;SDS011;3021;51.000;6.980;2022-11-20T07:58:57;29.23;;;17.05;;
5987;SDS011;3021;51.000;6.980;2022-11-20T08:01:23;28.70;;;16.30;;
5987;SDS011;3021;51.000;6.980;2022-11-20T08:03:48;30.48;;;17.73;;
5987;SDS011;3021;51.000;6.980;2022-11-20T08:06:13;29.58;;;17.30;;
5987;SDS011;3021;51.000;6.980;2022-11-20T08:08:39;29.27;;;17.02;;
5987;SDS011;3021;51.000;6.980;2022-11-20T08:11:05;28.05;;;15.80;;
5987;SDS011;3021;51.000;6.980;2022-11-20T08:13:49;30.38;;;16.95;;
5987;SDS011;3021;51.000;6.980;2022-11-20T08:16:33;28.52;;;17.23;;
5987;SDS011;3021;51.000;6.980;2022-11-20T08:18:59;30.08;;;17.48;;
5987;SDS011;3021;51.000;6.980;2022-11-20T08:21:24;28.77;;;16.75;;
5987;SDS011;3021;51.000;6.980;2022-11-20T08:23:49;30.83;;;17.23;;
5987;SDS011;3021;51.000;6.980;2022-11-20T08:26:15;29.20;;;17.08;;
5987;SDS011;3021;51.000;6.980;2022-11-20T08:28:40;33.30;;;18.02;;
5987;SDS011;3021;51.000;6.980;2022-11-20T08:31:06;32.22;;;18.55;;
5987;SDS011;3021;51.000;6.980;2022-11-20T08:33:31;29.45;;;17.00;;
5987;SDS011;3021;51.000;6.980;2022-11-20T08:36:01;31.65;;;18.10;;
5987;SDS011;3021;51.000;6.980;2022-11-20T08:38:28;29.00;;;16.73;;
5987;SDS011;3021;51.000;6.980;2022-11-20T08:40:56;30.40;;;17.75;;
5987;SDS011;3021;51.000;6.980;2022-11-20T08:43:43;33.05;;;17.50;;
5987;SDS011;3021;51.000;6.980;2022-11-20T08:46:09;31.63;;;17.55;;
5987;SDS011;3021;51.000;6.980;2022-11-20T08:48:34;33.08;;;18.85;;
5987;SDS011;3021;51.000;6.980;2022-11-20T08:51:00;30.35;;;18.27;;
5987;SDS011;3021;51.000;6.980;2022-11-20T08:53:25;31.55;;;17.63;;
5987;SDS011;3021;51.000;6.980;2022-11-20T08:55:51;34.17;;;18.48;;
5987;SDS011;3021;51.000;6.980;2022-11-20T08:58:16;31.05;;;17.75;;
5987;SDS011;3021;51.000;6.980;2022-11-20T09:00:42;29.10;;;16.77;;
5987;SDS011;3021;51.000;6.980;2022-11-20T09:03:07;29.05;;;16.13;;
5987;SDS011;3021;51.000;6.980;2022-11-20T09:05:32;34.80;;;17.95;;
5987;SDS011;3021;51.000;6.980;2022-11-20T09:07:58;32.53;;;18.05;;
5987;SDS011;3021;51.000;6.980;2022-11-20T09:10:24;30.52;;;17.13;;
5987;SDS011;3021;51.000;6.980;2022-11-20T09:12:50;30.75;;;16.73;;
5987;SDS011;3021;51.000;6.980;2022-11-20T09:15:17;31.95;;;17.63;;
5987;SDS011;3021;51.000;6.980;2022-11-20T09:17:50;26.33;;;15.40;;
5987;SDS011;3021;51.000;6.980;2022-11-20T09:20:18;28.77;;;16.98;;
5987;SDS011;3021;51.000;6.980;2022-11-20T09:22:44;35.00;;;18.85;;
5987;SDS011;3021;51.000;6.980;2022-11-20T09:25:09;32.35;;;17.98;;
5987;SDS011;3021;51.000;6.980;2022-11-20T09:27:35;30.83;;;16.77;;
5987;SDS011;3021;51.000;6.980;2022-11-20T09:30:00;28.75;;;16.85;;
5987;SDS011;3021;51.000;6.980;2022-11-20T09:32:26;32.40;;;18.25;;
5987;SDS011;3021;51.000;6.980;2022-11-20T09:34:51;31.67;;;17.63;;
5987;SDS011;3021;51.000;6.980;2022-11-20T09:37:16;28.77;;;15.93;;
5987;SDS011;3021;51.000;6.980;2022-11-20T09:39:42;28.38;;;16.80;;
5987;SDS011;3021;51.000;6.980;2022-11-20T09:42:24;28.50;;;17.27;;
5987;SDS011;3021;51.000;6.980;2022-11-20T09:47:51;30.93;;;16.77;;
5987;SDS011;3021;51.000;6.980;2022-11-20T09:50:23;27.20;;;16.38;;
5987;SDS011;3021;51.000;6.980;2022-11-20T09:52:55;32.38;;;17.55;;
5987;SDS011;3021;51.000;6.980;2022-11-20T09:55:37;28.48;;;15.93;;
5987;SDS011;3021;51.000;6.980;2022-11-20T09:58:07;31.25;;;16.60;;
5987;SDS011;3021;51.000;6.980;2022-11-20T10:00:41;31.98;;;17.17;;
5987;SDS011;3021;51.000;6.980;2022-11-20T10:05:40;26.98;;;16.77;;
5987;SDS011;3021;51.000;6.980;2022-11-20T10:10:45;30.02;;;17.02;;
5987;SDS011;3021;51.000;6.980;2022-11-20T10:21:26;29.58;;;17.20;;
5987;SDS011;3021;51.000;6.980;2022-11-20T10:29:46;32.22;;;17.95;;
5987;SDS011;3021;51.000;6.980;2022-11-20T10:32:19;28.10;;;16.98;;
5987;SDS011;3021;51.000;6.980;2022-11-20T10:34:54;33.25;;;19.13;;
5987;SDS011;3021;51.000;6.980;2022-11-20T10:37:26;41.03;;;20.48;;
5987;SDS011;3021;51.000;6.980;2022-11-20T10:39:56;29.58;;;17.50;;
5987;SDS011;3021;51.000;6.980;2022-11-20T10:45:02;34.95;;;18.17;;
5987;SDS011;3021;51.000;6.980;2022-11-20T10:47:41;32.13;;;18.00;;
5987;SDS011;3021;51.000;6.980;2022-11-20T10:50:09;34.38;;;18.98;;
5987;SDS011;3021;51.000;6.980;2022-11-20T10:55:39;30.77;;;17.77;;
5987;SDS011;3021;51.000;6.980;2022-11-20T10:58:18;35.88;;;19.45;;
5987;SDS011;3021;51.000;6.980;2022-11-20T11:03:52;35.33;;;19.50;;
5987;SDS011;3021;51.000;6.980;2022-11-20T11:06:36;33.50;;;18.70;;
5987;SDS011;3021;51.000;6.980;2022-11-20T11:09:09;33.60;;;19.70;;
5987;SDS011;3021;51.000;6.980;2022-11-20T11:11:40;40.50;;;20.92;;
5987;SDS011;3021;51.000;6.980;2022-11-20T11:16:35;38.30;;;20.23;;
5987;SDS011;3021;51.000;6.980;2022-11-20T11:19:14;35.80;;;18.50;;
5987;SDS011;3021;51.000;6.980;2022-11-20T11:21:45;33.42;;;19.77;;
5987;SDS011;3021;51.000;6.980;2022-11-20T11:26:57;33.50;;;18.55;;
5987;SDS011;3021;51.000;6.980;2022-11-20T11:29:28;35.08;;;20.23;;
5987;SDS011;3021;51.000;6.980;2022-11-20T11:32:11;37.30;;;19.45;;
5987;SDS011;3021;51.000;6.980;2022-11-20T11:34:38;40.40;;;21.02;;
5987;SDS011;3021;51.000;6.980;2022-11-20T11:37:03;35.45;;;19.38;;
5987;SDS011;3021;51.000;6.980;2022-11-20T11:39:30;33.90;;;20.27;;
5987;SDS011;3021;51.000;6.980;2022-11-20T11:41:57;36.05;;;19.67;;
5987;SDS011;3021;51.000;6.980;2022-11-20T11:44:28;32.78;;;18.80;;
5987;SDS011;3021;51.000;6.980;2022-11-20T11:47:22;35.17;;;19.33;;
5987;SDS011;3021;51.000;6.980;2022-11-20T11:55:27;35.50;;;19.15;;
5987;SDS011;3021;51.000;6.980;2022-11-20T12:03:42;33.63;;;19.33;;
5987;SDS011;3021;51.000;6.980;2022-11-20T12:06:17;33.78;;;19.17;;
5987;SDS011;3021;51.000;6.980;2022-11-20T12:08:44;32.40;;;18.92;;
5987;SDS011;3021;51.000;6.980;2022-11-20T12:11:20;36.25;;;19.77;;
5987;SDS011;3021;51.000;6.980;2022-11-20T12:13:48;33.78;;;19.83;;
5987;SDS011;3021;51.000;6.980;2022-11-20T12:16:19;34.83;;;20.05;;
5987;SDS011;3021;51.000;6.980;2022-11-20T12:18:46;35.80;;;20.10;;
5987;SDS011;3021;51.000;6.980;2022-11-20T12:26:48;34.53;;;18.50;;
5987;SDS011;3021;51.000;6.980;2022-11-20T12:29:23;37.15;;;18.85;;
5987;SDS011;3021;51.000;6.980;2022-11-20T12:43:21;32.30;;;17.80;;
5987;SDS011;3021;51.000;6.980;2022-11-20T12:59:11;34.00;;;19.10;;
5987;SDS011;3021;51.000;6.980;2022-11-20T13:07:24;33.42;;;17.48;;
5987;SDS011;3021;51.000;6.980;2022-11-20T13:09:52;34.90;;;18.02;;
5987;SDS011;3021;51.000;6.980;2022-11-20T13:12:25;36.83;;;18.65;;
5987;SDS011;3021;51.000;6.980;2022-11-20T13:15:05;32.05;;;18.70;;
5987;SDS011;3021;51.000;6.980;2022-11-20T13:17:45;27.70;;;16.48;;
5987;SDS011;3021;51.000;6.980;2022-11-20T13:20:18;30.70;;;17.15;;
5987;SDS011;3021;51.000;6.980;2022-11-20T13:27:48;34.47;;;17.48;;
5987;SDS011;3021;51.000;6.980;2022-11-20T13:30:15;29.48;;;16.42;;
5987;SDS011;3021;51.000;6.980;2022-11-20T13:33:03;29.20;;;16.85;;
5987;SDS011;3021;51.000;6.980;2022-11-20T13:35:31;31.40;;;17.48;;
5987;SDS011;3021;51.000;6.980;2022-11-20T13:38:06;30.58;;;17.27;;
5987;SDS011;3021;51.000;6.980;2022-11-20T13:40:37;29.75;;;17.63;;
5987;SDS011;3021;51.000;6.980;2022-11-20T13:45:56;30.30;;;17.33;;
5987;SDS011;3021;51.000;6.980;2022-11-20T13:48:24;29.40;;;16.95;;
5987;SDS011;3021;51.000;6.980;2022-11-20T13:50:55;29.77;;;15.85;;
5987;SDS011;3021;51.000;6.980;2022-11-20T13:53:30;31.08;;;16.42;;
5987;SDS011;3021;51.000;6.980;2022-11-20T14:01:43;31.55;;;16.88;;
5987;SDS011;3021;51.000;6.980;2022-11-20T14:04:13;34.30;;;18.02;;
5987;SDS011;3021;51.000;6.980;2022-11-20T14:06:43;27.80;;;15.88;;
5987;SDS011;3021;51.000;6.980;2022-11-20T14:09:12;29.02;;;15.52;;
5987;SDS011;3021;51.000;6.980;2022-11-20T14:11:49;25.90;;;16.10;;
5987;SDS011;3021;51.000;6.980;2022-11-20T14:14:21;30.13;;;16.73;;
5987;SDS011;3021;51.000;6.980;2022-11-20T14:16:48;26.85;;;16.02;;
5987;SDS011;3021;51.000;6.980;2022-11-20T14:21:53;32.60;;;16.27;;
5987;SDS011;3021;51.000;6.980;2022-11-20T14:24:30;29.88;;;16.35;;
5987;SDS011;3021;51.000;6.980;2022-11-20T14:26:56;33.13;;;17.92;;
5987;SDS011;3021;51.000;6.980;2022-11-20T14:29:22;31.40;;;16.83;;
5987;SDS011;3021;51.000;6.980;2022-11-20T14:31:53;35.67;;;17.27;;
5987;SDS011;3021;51.000;6.980;2022-11-20T14:34:24;31.17;;;17.33;;
5987;SDS011;3021;51.000;6.980;2022-11-20T14:36:58;31.70;;;17.00;;
5987;SDS011;3021;51.000;6.980;2022-11-20T14:39:37;31.40;;;16.15;;
5987;SDS011;3021;51.000;6.980;2022-11-20T14:42:15;31.80;;;16.27;;
5987;SDS011;3021;51.000;6.980;2022-11-20T14:44:42;31.65;;;17.08;;
5987;SDS011;3021;51.000;6.980;2022-11-20T14:47:08;31.67;;;17.65;;
5987;SDS011;3021;51.000;6.980;2022-11-20T14:49:37;33.90;;;16.88;;
5987;SDS011;3021;51.000;6.980;2022-11-20T14:52:13;31.10;;;16.15;;
5987;SDS011;3021;51.000;6.980;2022-11-20T14:54:47;30.08;;;17.05;;
5987;SDS011;3021;51.000;6.980;2022-11-20T14:57:34;32.90;;;16.45;;
5987;SDS011;3021;51.000;6.980;2022-11-20T15:02:32;29.52;;;16.60;;
5987;SDS011;3021;51.000;6.980;2022-11-20T15:04:59;30.35;;;16.17;;
5987;SDS011;3021;51.000;6.980;2022-11-20T15:07:33;29.27;;;16.02;;
5987;SDS011;3021;51.000;6.980;2022-11-20T15:12:33;28.02;;;15.65;;
5987;SDS011;3021;51.000;6.980;2022-11-20T15:15:02;30.80;;;15.93;;
5987;SDS011;3021;51.000;6.980;2022-11-20T15:17:28;30.55;;;16.45;;
5987;SDS011;3021;51.000;6.980;2022-11-20T15:19:55;34.33;;;16.27;;
5987;SDS011;3021;51.000;6.980;2022-11-20T15:22:21;34.60;;;17.80;;
5987;SDS011;3021;51.000;6.980;2022-11-20T15:24:46;29.17;;;16.55;;
5987;SDS011;3021;51.000;6.980;2022-11-20T15:27:11;29.50;;;16.92;;
5987;SDS011;3021;51.000;6.980;2022-11-20T15:29:37;33.72;;;17.90;;
5987;SDS011;3021;51.000;6.980;2022-11-20T15:32:02;34.10;;;18.55;;
5987;SDS011;3021;51.000;6.980;2022-11-20T15:34:28;39.15;;;19.38;;
5987;SDS011;3021;51.000;6.980;2022-11-20T15:36:53;40.85;;;22.35;;
5987;SDS011;3021;51.000;6.980;2022-11-20T15:39:19;39.08;;;21.40;;
5987;SDS011;3021;51.000;6.980;2022-11-20T15:41:45;47.83;;;23.67;;
5987;SDS011;3021;51.000;6.980;2022-11-20T15:44:11;44.90;;;23.20;;
5987;SDS011;3021;51.000;6.980;2022-11-20T15:46:37;45.30;;;22.90;;
5987;SDS011;3021;51.000;6.980;2022-11-20T15:49:05;43.28;;;23.58;;
5987;SDS011;3021;51.000;6.980;2022-11-20T15:51:37;43.13;;;21.80;;
5987;SDS011;3021;51.000;6.980;2022-11-20T15:54:11;46.33;;;22.88;;
5987;SDS011;3021;51.000;6.980;2022-11-20T15:56:48;51.08;;;24.08;;
5987;SDS011;3021;51.000;6.980;2022-11-20T15:59:14;49.20;;;23.80;;
5987;SDS011;3021;51.000;6.980;2022-11-20T16:01:40;53.33;;;24.70;;
5987;SDS011;3021;51.000;6.980;2022-11-20T16:04:13;48.60;;;24.55;;
5987;SDS011;3021;51.000;6.980;2022-11-20T16:06:40;44.17;;;22.95;;
5987;SDS011;3021;51.000;6.980;2022-11-20T16:09:05;45.40;;;23.20;;
5987;SDS011;3021;51.000;6.980;2022-11-20T16:11:31;45.10;;;22.88;;
5987;SDS011;3021;51.000;6.980;2022-11-20T16:13:56;45.45;;;22.42;;
5987;SDS011;3021;51.000;6.980;2022-11-20T16:16:40;47.95;;;22.50;;
5987;SDS011;3021;51.000;6.980;2022-11-20T16:19:09;46.38;;;23.05;;
5987;SDS011;3021;51.000;6.980;2022-11-20T16:21:35;41.97;;;21.05;;
5987;SDS011;3021;51.000;6.980;2022-11-20T16:24:03;46.15;;;22.23;;
5987;SDS011;3021;51.000;6.980;2022-11-20T16:26:30;42.53;;;20.95;;
5987;SDS011;3021;51.000;6.980;2022-11-20T16:28:55;43.67;;;21.08;;
5987;SDS011;3021;51.000;6.980;2022-11-20T16:31:20;51.10;;;23.33;;
5987;SDS011;3021;51.000;6.980;2022-11-20T16:33:50;40.22;;;20.85;;
5987;SDS011;3021;51.000;6.980;2022-11-20T16:36:20;40.88;;;21.23;;
5987;SDS011;3021;51.000;6.980;2022-11-20T16:38:46;46.15;;;21.90;;
5987;SDS011;3021;51.000;6.980;2022-11-20T16:41:11;43.63;;;20.90;;
5987;SDS011;3021;51.000;6.980;2022-11-20T16:43:49;45.38;;;21.95;;
5987;SDS011;3021;51.000;6.980;2022-11-20T16:46:17;40.10;;;19.38;;
5987;SDS011;3021;51.000;6.980;2022-11-20T16:48:44;41.92;;;21.45;;